< Typhoon 198801 1988 Season Typhoon 198803 >
Typhoon 198802 (SUSAN)
General InformationTrack Information on Google MapsDetailed Wind InformationList of All Images || Disaster Info.ResourceGoogle EarthGE AnimationAtom FeedGeoJSON
Detalied Best Track (Time Zone = UTC)
Year Month Day Hour Lat. Long. Pressure (hPa) Wind (kt) Class Image Chart
1988 5 28 18 19.0 118.5 1004 0 2 Image Chart
1988 5 29 00 19.0 119.0 1004 0 2 Image Chart
1988 5 29 06 19.0 119.5 1004 0 2 Image Chart
1988 5 29 12 19.0 119.5 1000 0 2 Image Chart
1988 5 29 18 18.7 119.5 1000 0 2 Image Chart
1988 5 30 00 18.5 119.5 1000 0 2 Image Chart
1988 5 30 06 18.3 119.2 996 40 3 Image Chart
1988 5 30 12 18.3 119.0 994 40 3 Image Chart
1988 5 30 18 18.4 118.7 992 45 3 Image Chart
1988 5 31 00 18.5 118.4 990 45 3 Image Chart
1988 5 31 06 18.8 118.0 985 50 4 Image Chart
1988 5 31 12 19.4 117.7 985 50 4 Image Chart
1988 5 31 18 20.0 117.6 980 55 4 Image Chart
1988 6 1 00 20.2 117.5 975 55 4 Image Chart
1988 6 1 06 20.5 118.1 975 60 4 Image Chart
1988 6 1 12 21.0 118.7 970 60 4 Image Chart
1988 6 1 18 21.5 119.8 970 65 5 Image Chart
1988 6 2 00 22.2 120.9 975 65 5 Image Chart
1988 6 2 06 23.2 122.6 975 65 5 Image Chart
1988 6 2 12 24.1 124.6 980 55 4 Image Chart
1988 6 2 18 25.2 126.4 985 50 4 Image Chart
1988 6 3 00 26.0 128.6 992 40 3 Image Chart
1988 6 3 06 27.0 131.0 998 0 6 Image Chart
Japan Meteorological Agency Best Track Data | Correction Date : 1992-10-21
< Typhoon 198801 1988 Season Typhoon 198803 >

Help